Time;durP1;ratioP1;P1;durP2;ratioP2;P2;SDS_P1;SDS_P2;PMS_P1;PMS_P2;Temp;Humidity;BMP_temperature;BMP_pressure;BME280_temperature;BME280_humidity;BME280_pressure;Samples;Min_cycle;Max_cycle;Signal;HPM_P1;HPM_P2
2022/02/17 00:01:15;;;;;;;2.73;1.87;;;2.70;99.90;3.80;95840.00;;;;5127455;28;20428;-84
2022/02/17 00:04:04;;;;;;;2.77;2.00;;;2.80;99.90;3.80;95834.00;;;;5129091;27;20463;-83
2022/02/17 00:06:53;;;;;;;5.53;3.00;;;2.80;99.90;3.70;95816.00;;;;5125347;27;20974;-84
2022/02/17 00:09:41;;;;;;;3.33;2.63;;;2.80;99.90;3.70;95808.00;;;;5141708;27;20434;-84
2022/02/17 00:12:32;;;;;;;3.57;2.23;;;2.80;99.90;3.60;95802.00;;;;5132570;27;20415;-82
2022/02/17 00:15:21;;;;;;;2.33;1.90;;;2.80;99.90;3.30;95802.00;;;;5141009;27;20948;-82
2022/02/17 00:18:16;;;;;;;4.30;2.33;;;2.70;99.90;3.10;95795.00;;;;5139970;27;20439;-84
2022/02/17 00:21:05;;;;;;;3.93;2.70;;;2.60;99.90;3.20;95791.00;;;;5139737;27;20420;-83
2022/02/17 00:23:54;;;;;;;3.93;1.93;;;2.60;99.90;3.30;95776.00;;;;5139818;27;20420;-82
2022/02/17 00:26:43;;;;;;;4.40;2.73;;;2.60;99.90;3.20;95785.00;;;;5139450;27;20428;-84
2022/02/17 00:29:34;;;;;;;5.47;2.90;;;2.60;99.90;3.50;95785.00;;;;5139529;27;20438;-82
2022/02/17 00:32:23;;;;;;;1.57;1.47;;;2.60;99.90;2.60;95795.00;;;;5138223;27;20428;-82
2022/02/17 00:35:12;;;;;;;2.07;1.60;;;2.60;99.90;2.70;95787.00;;;;5140511;27;20450;-82
2022/02/17 00:38:01;;;;;;;1.60;1.50;;;3.50;99.90;2.70;95787.00;;;;5139015;27;20431;-83
2022/02/17 00:40:50;;;;;;;2.27;1.53;;;2.40;99.90;2.80;95781.00;;;;5140619;27;20432;-82
2022/02/17 00:43:40;;;;;;;1.23;1.13;;;2.30;99.90;3.00;95775.00;;;;5139265;27;21029;-82
2022/02/17 00:46:30;;;;;;;3.33;1.80;;;2.30;99.90;3.30;95771.00;;;;5139201;27;20431;-82
2022/02/17 00:49:19;;;;;;;2.43;1.90;;;2.40;99.90;3.30;95771.00;;;;5139271;27;20436;-83
2022/02/17 00:52:08;;;;;;;2.37;2.17;;;2.40;99.90;3.60;95779.00;;;;5139143;27;20451;-82
2022/02/17 00:54:57;;;;;;;1.67;1.50;;;2.50;99.90;3.40;95775.00;;;;5139098;27;21027;-83
2022/02/17 00:57:46;;;;;;;2.43;1.90;;;2.60;99.90;2.90;95776.00;;;;5141015;27;20432;-82
2022/02/17 01:00:35;;;;;;;2.80;1.90;;;2.60;99.90;3.50;95777.00;;;;5139225;27;20832;-82
2022/02/17 01:03:25;;;;;;;5.10;2.27;;;2.60;99.90;3.70;95792.00;;;;5134630;27;20435;-81
2022/02/17 01:06:14;;;;;;;2.00;1.90;;;2.60;99.90;3.30;95787.00;;;;5124803;27;20841;-81
2022/02/17 01:09:02;;;;;;;1.83;1.73;;;2.60;99.90;3.30;95790.00;;;;5140419;27;20791;-81
2022/02/17 01:11:53;;;;;;;1.80;1.67;;;2.70;99.90;3.60;95778.00;;;;5139371;27;20435;-82
2022/02/17 01:14:42;;;;;;;2.93;1.07;;;2.70;99.90;3.30;95775.00;;;;5139905;27;20450;-82
2022/02/17 01:17:30;;;;;;;1.30;1.20;;;2.70;99.90;3.00;95775.00;;;;5140642;27;20432;-83
2022/02/17 01:20:21;;;;;;;1.50;1.40;;;2.60;99.90;3.10;95761.00;;;;5141872;27;20475;-82
2022/02/17 01:23:10;;;;;;;2.30;1.30;;;2.60;99.90;3.00;95759.00;;;;5140104;27;20442;-82
2022/02/17 01:25:59;;;;;;;2.00;1.73;;;2.60;99.90;3.20;95745.00;;;;5140440;27;20454;-81
2022/02/17 01:28:48;;;;;;;1.83;1.70;;;2.70;99.90;3.40;95743.00;;;;5130169;27;20602;-81
2022/02/17 01:31:37;;;;;;;2.07;1.87;;;2.60;99.90;3.60;95747.00;;;;5138478;27;20428;-82
2022/02/17 01:34:26;;;;;;;1.53;1.20;;;2.70;99.90;3.40;95719.00;;;;5140630;27;20451;-82
2022/02/17 01:37:16;;;;;;;1.03;1.00;;;2.70;99.90;3.30;95721.00;;;;5141087;27;20424;-81
2022/02/17 01:40:06;;;;;;;1.50;1.33;;;2.70;99.90;3.70;95699.00;;;;5139655;27;20972;-83
2022/02/17 01:42:56;;;;;;;1.20;1.10;;;2.70;99.90;3.50;95693.00;;;;5137713;27;20440;-81
2022/02/17 01:45:46;;;;;;;1.13;1.07;;;2.70;99.90;3.50;95685.00;;;;5139634;27;20467;-82
2022/02/17 01:48:35;;;;;;;3.13;1.50;;;2.70;99.90;3.50;95686.00;;;;5140011;27;20428;-82
2022/02/17 01:51:24;;;;;;;1.47;1.37;;;2.70;99.90;3.40;95689.00;;;;5141089;27;20427;-82
2022/02/17 01:54:14;;;;;;;1.77;1.43;;;2.70;99.90;3.40;95691.00;;;;5138889;27;20444;-81
2022/02/17 01:57:10;;;;;;;2.60;1.50;;;2.80;99.90;3.50;95681.00;;;;5140034;27;20940;-82
2022/02/17 02:00:01;;;;;;;1.43;1.37;;;2.80;99.90;3.60;95692.00;;;;5139108;27;20474;-82
2022/02/17 02:02:50;;;;;;;5.47;1.13;;;2.40;99.90;3.50;95685.00;;;;5132632;27;20441;-82
2022/02/17 02:05:39;;;;;;;1.43;1.27;;;2.80;99.90;3.70;95673.00;;;;5128674;27;20444;-82
2022/02/17 02:08:28;;;;;;;2.47;1.23;;;2.80;99.90;3.90;95673.00;;;;5134555;27;20432;-82
2022/02/17 02:11:20;;;;;;;1.50;1.40;;;2.90;99.90;4.00;95668.00;;;;5140159;27;20439;-83
2022/02/17 02:14:15;;;;;;;1.60;1.50;;;2.90;99.90;4.00;95662.00;;;;5127041;27;20448;-82
2022/02/17 02:17:10;;;;;;;2.13;1.63;;;3.00;99.90;3.60;95661.00;;;;5139662;27;20415;-83
2022/02/17 02:19:59;;;;;;;2.63;1.50;;;3.00;99.90;3.60;95668.00;;;;5140936;27;20469;-81
2022/02/17 02:22:49;;;;;;;1.87;1.77;;;2.90;99.90;4.00;95652.00;;;;5139954;27;20432;-82
2022/02/17 02:25:38;;;;;;;1.27;0.97;;;3.00;99.90;4.30;95658.00;;;;5137998;27;20458;-82
2022/02/17 02:28:29;;;;;;;2.17;1.40;;;3.10;99.90;4.30;95635.00;;;;5131083;27;20446;-82
2022/02/17 02:31:18;;;;;;;1.30;1.20;;;3.20;99.90;3.80;95644.00;;;;5131229;27;20425;-82
2022/02/17 02:34:09;;;;;;;0.60;0.60;;;3.20;99.90;2.90;95623.00;;;;5138874;27;20750;-83
2022/02/17 02:36:58;;;;;;;1.50;1.40;;;3.10;99.90;2.90;95629.00;;;;5138779;27;20423;-82
2022/02/17 02:39:48;;;;;;;2.93;1.53;;;2.80;99.90;3.40;95634.00;;;;5139236;27;20466;-83
2022/02/17 02:42:37;;;;;;;1.47;1.30;;;2.80;99.90;3.90;95623.00;;;;5131310;27;20436;-82
2022/02/17 02:45:26;;;;;;;1.83;1.73;;;2.90;99.90;4.00;95617.00;;;;5123763;27;20448;-81
2022/02/17 02:48:15;;;;;;;2.40;1.87;;;2.90;99.90;4.10;95634.00;;;;5131950;27;20510;-81
2022/02/17 02:51:04;;;;;;;3.73;1.90;;;3.00;99.90;4.20;95612.00;;;;5138918;27;20727;-82
2022/02/17 02:53:53;;;;;;;3.90;1.93;;;3.00;99.90;4.10;95612.00;;;;5149670;27;20428;-82
2022/02/17 02:56:43;;;;;;;2.03;1.50;;;3.10;99.90;4.20;95618.00;;;;5132449;27;20435;-84
2022/02/17 02:59:34;;;;;;;4.53;1.83;;;3.20;99.90;4.20;95606.00;;;;5138082;27;20826;-83
2022/02/17 03:02:23;;;;;;;2.03;1.87;;;3.20;99.90;4.40;95584.00;;;;5135515;27;20424;-82
2022/02/17 03:05:12;;;;;;;2.80;1.30;;;3.20;99.90;4.20;95593.00;;;;5128893;27;20479;-82
2022/02/17 03:08:02;;;;;;;1.37;1.07;;;3.30;99.90;3.80;95587.00;;;;5134235;27;20917;-82
2022/02/17 03:10:51;;;;;;;2.20;1.17;;;3.20;99.90;3.20;95589.00;;;;5139892;27;20447;-84
2022/02/17 03:13:41;;;;;;;1.00;0.90;;;3.10;99.90;3.20;95585.00;;;;5134952;27;20431;-83
2022/02/17 03:16:30;;;;;;;1.03;0.90;;;3.00;99.90;3.30;95586.00;;;;5140888;27;20431;-84
2022/02/17 03:19:19;;;;;;;1.73;1.53;;;3.00;99.90;3.80;95588.00;;;;5144636;27;20424;-85
2022/02/17 03:22:08;;;;;;;1.30;1.20;;;3.00;99.90;4.10;95556.00;;;;5144587;27;20451;-83
2022/02/17 03:24:57;;;;;;;3.00;1.90;;;3.10;99.90;4.20;95561.00;;;;5143304;27;20452;-84
2022/02/17 03:27:46;;;;;;;0.87;0.83;;;3.10;99.90;4.00;95551.00;;;;5144295;27;20423;-81
2022/02/17 03:30:36;;;;;;;1.87;1.50;;;3.10;99.90;3.80;95546.00;;;;5146046;27;20424;-83
2022/02/17 03:33:25;;;;;;;1.70;1.40;;;3.10;99.90;3.60;95553.00;;;;5145265;28;20431;-83
2022/02/17 03:36:14;;;;;;;1.83;1.73;;;3.00;99.90;3.30;95543.00;;;;5145350;28;20442;-82
2022/02/17 03:39:03;;;;;;;2.33;1.90;;;3.00;99.90;3.50;95533.00;;;;5143876;27;20420;-83
2022/02/17 03:41:52;;;;;;;1.60;1.50;;;3.00;99.90;3.50;95529.00;;;;5144596;27;20983;-84
2022/02/17 03:44:41;;;;;;;1.80;1.63;;;3.00;99.90;3.40;95518.00;;;;5144527;27;20448;-84
2022/02/17 03:47:31;;;;;;;1.60;1.50;;;3.00;99.90;3.60;95524.00;;;;5144354;27;20427;-82
2022/02/17 03:50:20;;;;;;;1.50;1.40;;;3.00;99.90;3.60;95514.00;;;;5150699;27;20424;-82
2022/02/17 03:53:09;;;;;;;1.80;1.40;;;3.00;99.90;3.80;95515.00;;;;5141610;27;20423;-85
2022/02/17 03:55:57;;;;;;;2.50;1.90;;;3.00;99.90;3.60;95520.00;;;;5137332;27;20443;-84
2022/02/17 03:59:07;;;;;;;1.43;1.30;;;2.90;99.90;3.70;95529.00;;;;5139417;27;20431;-84
2022/02/17 04:01:56;;;;;;;2.93;2.20;;;2.90;99.90;3.60;95533.00;;;;5136172;27;20467;-83
2022/02/17 04:04:47;;;;;;;1.77;1.67;;;2.90;99.90;3.40;95522.00;;;;5131970;27;20432;-84
2022/02/17 04:07:36;;;;;;;2.30;1.93;;;2.80;99.90;3.20;95512.00;;;;5136176;27;20427;-84
2022/02/17 04:10:25;;;;;;;1.50;1.40;;;2.70;99.90;2.90;95514.00;;;;5138219;27;20431;-84
2022/02/17 04:13:14;;;;;;;3.30;1.90;;;2.60;99.90;3.10;95483.00;;;;5135253;27;20424;-85
2022/02/17 04:16:03;;;;;;;2.43;2.23;;;2.50;99.90;3.40;95505.00;;;;5138043;27;20423;-85
2022/02/17 04:18:52;;;;;;;3.07;2.57;;;2.50;99.90;3.40;95488.00;;;;5138353;27;20443;-84
2022/02/17 04:21:43;;;;;;;2.07;1.83;;;2.50;99.90;2.80;95482.00;;;;5135804;27;20467;-84
2022/02/17 04:24:31;;;;;;;2.90;2.27;;;2.40;99.90;2.60;95494.00;;;;5136596;27;20472;-84
2022/02/17 04:27:20;;;;;;;2.97;1.80;;;2.40;99.90;2.80;95472.00;;;;5128724;27;20423;-83
2022/02/17 04:30:10;;;;;;;4.67;1.87;;;2.30;99.90;2.80;95477.00;;;;5124717;27;20944;-85
2022/02/17 04:33:02;;;;;;;3.00;1.50;;;2.20;99.90;2.90;95468.00;;;;5135402;27;20431;-84
2022/02/17 04:35:50;;;;;;;3.63;1.87;;;2.20;99.90;2.60;95473.00;;;;5137281;27;20612;-84
2022/02/17 04:38:41;;;;;;;2.40;2.17;;;2.20;99.90;2.70;95465.00;;;;5136787;27;20420;-85
2022/02/17 04:44:36;;;;;;;1.57;1.43;;;2.10;99.90;2.40;95459.00;;;;5136699;27;20966;-84
2022/02/17 04:47:25;;;;;;;1.33;1.23;;;2.00;99.90;2.40;95454.00;;;;5135218;27;20428;-83
2022/02/17 04:50:13;;;;;;;1.67;1.57;;;2.10;99.90;2.90;95444.00;;;;5137250;27;20434;-83
2022/02/17 04:53:02;;;;;;;2.53;1.60;;;2.10;99.90;3.10;95458.00;;;;5137023;27;20420;-85
2022/02/17 04:55:53;;;;;;;2.80;1.80;;;2.10;99.90;2.80;95446.00;;;;5136335;27;20451;-85
2022/02/17 04:58:42;;;;;;;2.40;1.60;;;2.20;99.90;2.70;95442.00;;;;5138671;27;20439;-84
2022/02/17 05:01:31;;;;;;;2.47;1.60;;;2.10;99.90;2.30;95441.00;;;;5137396;27;20464;-85
2022/02/17 05:04:20;;;;;;;2.30;2.00;;;2.00;99.90;2.60;95445.00;;;;5128644;27;20474;-83
2022/02/17 05:07:09;;;;;;;1.40;1.30;;;1.90;99.90;2.50;95448.00;;;;5127793;27;20420;-85
2022/02/17 05:09:58;;;;;;;2.33;1.50;;;1.90;99.90;2.10;95449.00;;;;5126328;27;20401;-84
2022/02/17 05:12:48;;;;;;;1.93;1.53;;;1.80;99.90;1.80;95444.00;;;;5127686;27;20428;-83
2022/02/17 05:15:38;;;;;;;1.47;1.37;;;1.70;99.90;1.80;95448.00;;;;5119934;27;20827;-84
2022/02/17 05:18:27;;;;;;;2.03;1.80;;;1.60;99.90;2.10;95444.00;;;;5134927;27;20420;-83
2022/02/17 05:21:16;;;;;;;3.83;1.53;;;1.60;99.90;2.20;95447.00;;;;5133569;27;20463;-82
2022/02/17 05:24:05;;;;;;;1.53;1.43;;;1.60;99.90;2.20;95427.00;;;;5131103;27;20464;-83
2022/02/17 05:26:56;;;;;;;2.37;2.13;;;1.60;99.90;2.50;95428.00;;;;5125222;27;20435;-83
2022/02/17 05:29:47;;;;;;;2.90;1.80;;;1.60;99.90;2.60;95428.00;;;;5124026;27;20428;-84
2022/02/17 05:32:40;;;;;;;2.37;2.10;;;1.60;99.90;2.60;95417.00;;;;5123951;27;20936;-83
2022/02/17 05:35:29;;;;;;;2.60;1.53;;;1.70;99.90;2.60;95428.00;;;;5124897;27;20460;-82
2022/02/17 05:38:17;;;;;;;2.07;1.70;;;1.70;99.90;1.90;95432.00;;;;5130928;27;20423;-84
2022/02/17 05:41:06;;;;;;;1.87;1.63;;;1.70;99.90;2.00;95417.00;;;;5133603;27;20428;-84
2022/02/17 05:43:56;;;;;;;1.10;1.00;;;1.60;99.90;1.80;95405.00;;;;5133181;27;20420;-82
2022/02/17 05:46:46;;;;;;;1.83;1.67;;;1.50;99.90;1.50;95396.00;;;;5122065;27;20484;-82
2022/02/17 05:49:35;;;;;;;2.63;1.70;;;1.40;99.90;1.80;95396.00;;;;5126301;27;20987;-83
2022/02/17 05:52:24;;;;;;;2.87;1.87;;;1.30;99.90;1.70;95393.00;;;;5124032;27;20413;-83
2022/02/17 05:55:13;;;;;;;2.37;1.43;;;1.30;99.90;1.90;95399.00;;;;5128461;27;20443;-83
2022/02/17 05:58:01;;;;;;;2.07;1.87;;;1.30;99.90;2.10;95389.00;;;;5142065;27;20458;-82
2022/02/17 06:00:50;;;;;;;2.27;2.17;;;1.30;99.90;2.20;95368.00;;;;5149145;27;20448;-82
2022/02/17 06:03:40;;;;;;;2.50;2.10;;;1.30;99.90;2.10;95372.00;;;;5122503;27;20412;-84
2022/02/17 06:06:29;;;;;;;3.70;2.20;;;1.30;99.90;2.10;95385.00;;;;5129002;27;20446;-83
2022/02/17 06:09:18;;;;;;;2.13;1.60;;;1.30;99.90;1.60;95378.00;;;;5128262;27;21782;-83
2022/02/17 06:12:08;;;;;;;3.03;2.40;;;1.30;99.90;1.90;95362.00;;;;5128785;27;21114;-83
2022/02/17 06:14:58;;;;;;;1.53;1.43;;;1.30;99.90;1.40;95387.00;;;;5133902;27;20443;-84
2022/02/17 06:17:47;;;;;;;2.90;2.03;;;1.20;99.90;1.50;95368.00;;;;5133392;27;20431;-83
2022/02/17 06:20:37;;;;;;;2.07;1.83;;;1.10;99.90;1.80;95369.00;;;;5131584;27;20427;-83
2022/02/17 06:23:26;;;;;;;1.43;1.33;;;1.10;99.90;1.90;95345.00;;;;5130030;27;20467;-83
2022/02/17 06:26:18;;;;;;;1.97;1.63;;;1.10;99.90;1.80;95318.00;;;;5128563;27;20492;-83
2022/02/17 06:29:07;;;;;;;1.33;1.23;;;1.20;99.90;1.50;95329.00;;;;5120789;27;20429;-83
2022/02/17 06:31:56;;;;;;;1.57;1.47;;;1.10;99.90;1.60;95335.00;;;;5118126;27;20428;-83
2022/02/17 06:34:45;;;;;;;2.03;1.83;;;1.00;99.90;1.80;95345.00;;;;5129659;27;20454;-81
2022/02/17 06:37:35;;;;;;;2.10;1.77;;;1.10;99.90;1.80;95330.00;;;;5121918;27;20474;-83
2022/02/17 06:40:24;;;;;;;3.53;1.83;;;1.10;99.90;2.00;95337.00;;;;5123219;27;20420;-83
2022/02/17 06:43:15;;;;;;;2.50;2.30;;;1.10;99.90;1.90;95361.00;;;;5119816;27;20467;-83
2022/02/17 06:46:04;;;;;;;2.57;1.73;;;1.10;99.90;1.20;95356.00;;;;5129805;27;20431;-82
2022/02/17 06:48:53;;;;;;;1.30;1.17;;;1.10;99.90;1.10;95366.00;;;;5121725;27;20517;-83
2022/02/17 06:51:42;;;;;;;1.00;0.90;;;1.10;99.90;1.10;95358.00;;;;5103075;28;20417;-83
2022/02/17 06:54:32;;;;;;;2.50;1.50;;;1.10;99.90;1.60;95363.00;;;;5101491;28;20449;-82
2022/02/17 06:57:22;;;;;;;3.03;1.60;;;1.30;99.90;1.60;95366.00;;;;5095949;28;20758;-82
2022/02/17 07:00:12;;;;;;;2.03;1.77;;;1.10;99.90;1.90;95353.00;;;;5103816;28;20433;-81
2022/02/17 07:03:04;;;;;;;2.73;2.17;;;1.20;99.90;1.60;95356.00;;;;5097503;28;20477;-82
2022/02/17 07:05:53;;;;;;;2.00;1.80;;;1.20;99.90;1.60;95349.00;;;;5101424;28;20456;-82
2022/02/17 07:08:42;;;;;;;2.40;2.20;;;1.30;99.90;1.90;95346.00;;;;5101080;28;20429;-83
2022/02/17 07:11:33;;;;;;;2.17;1.93;;;1.30;99.90;1.90;95330.00;;;;5093253;28;20815;-82
2022/02/17 07:14:23;;;;;;;1.73;1.63;;;1.40;99.90;2.10;95331.00;;;;5093673;28;20453;-82
2022/02/17 07:17:12;;;;;;;1.97;1.77;;;1.50;99.90;2.80;95348.00;;;;5096372;28;20456;-82
2022/02/17 07:20:01;;;;;;;1.73;1.63;;;1.70;99.90;2.00;95348.00;;;;5103459;28;20448;-82
2022/02/17 07:22:50;;;;;;;10.57;5.80;;;1.80;99.90;1.60;95347.00;;;;5100972;28;20461;-83
2022/02/17 07:25:39;;;;;;;4.27;3.47;;;1.70;99.90;2.40;95349.00;;;;5099700;28;20452;-81
2022/02/17 07:28:29;;;;;;;4.70;2.90;;;1.70;99.90;2.20;95335.00;;;;5100754;28;20437;-81
2022/02/17 07:31:18;;;;;;;2.60;2.40;;;1.80;99.90;2.70;95325.00;;;;5106661;28;20618;-82
2022/02/17 07:34:07;;;;;;;2.33;2.00;;;1.90;99.90;2.50;95340.00;;;;5107387;28;20841;-81
2022/02/17 07:36:56;;;;;;;2.40;2.20;;;2.00;99.90;2.60;95332.00;;;;5116794;28;20439;-80
2022/02/17 07:39:47;;;;;;;4.47;3.23;;;2.10;99.90;3.40;95344.00;;;;5108880;28;20569;-80
2022/02/17 07:42:36;;;;;;;3.63;2.13;;;2.20;99.90;3.30;95345.00;;;;5108366;28;20472;-81
2022/02/17 07:45:26;;;;;;;2.97;2.10;;;2.30;99.90;3.40;95345.00;;;;5103224;28;20452;-81
2022/02/17 07:48:15;;;;;;;3.83;2.50;;;2.50;99.90;3.60;95340.00;;;;5108169;28;20421;-81
2022/02/17 07:51:04;;;;;;;2.57;2.30;;;2.60;99.90;3.00;95333.00;;;;5105939;28;21122;-81
2022/02/17 07:53:53;;;;;;;5.13;4.63;;;2.60;99.90;3.50;95344.00;;;;5105853;28;20425;-81
2022/02/17 07:56:42;;;;;;;5.93;4.07;;;2.60;99.90;3.80;95341.00;;;;5121969;28;20451;-81
2022/02/17 07:59:30;;;;;;;3.80;3.00;;;2.70;99.90;3.60;95334.00;;;;5123862;28;20439;-80
2022/02/17 08:02:21;;;;;;;4.93;3.17;;;2.80;99.90;3.30;95319.00;;;;5127279;28;20420;-82
2022/02/17 08:05:12;;;;;;;4.93;3.23;;;2.80;99.90;3.40;95324.00;;;;5130016;28;20444;-82
2022/02/17 08:08:01;;;;;;;6.17;4.23;;;2.80;99.90;3.60;95319.00;;;;5127160;28;20788;-80
2022/02/17 08:10:50;;;;;;;2.73;2.53;;;2.90;99.90;3.80;95317.00;;;;5119421;28;20412;-81
2022/02/17 08:13:39;;;;;;;4.63;3.30;;;3.00;99.90;3.90;95311.00;;;;5120892;28;20419;-81
2022/02/17 08:16:28;;;;;;;2.57;2.20;;;3.10;99.90;4.20;95320.00;;;;5112061;28;20432;-82
2022/02/17 08:19:19;;;;;;;3.53;3.23;;;3.20;99.90;3.70;95315.00;;;;5108639;28;20428;-81
2022/02/17 08:22:07;;;;;;;5.17;3.00;;;3.30;99.90;3.80;95305.00;;;;5108500;28;21006;-81
2022/02/17 08:24:56;;;;;;;3.57;2.83;;;3.30;99.90;3.70;95306.00;;;;5111838;27;20452;-80
2022/02/17 08:27:45;;;;;;;4.33;2.40;;;3.40;99.90;4.20;95315.00;;;;5121224;27;20756;-81
2022/02/17 08:30:36;;;;;;;5.13;2.97;;;3.40;99.90;4.50;95311.00;;;;5113960;28;20439;-80
2022/02/17 08:33:25;;;;;;;7.67;2.80;;;3.60;99.90;4.80;95319.00;;;;5112097;28;20432;-80
2022/02/17 08:36:15;;;;;;;14.87;10.73;;;3.70;99.90;4.80;95329.00;;;;5113700;28;20428;-80
2022/02/17 08:39:06;;;;;;;3.83;2.97;;;3.80;99.90;4.70;95319.00;;;;5115181;27;20953;-79
2022/02/17 08:41:55;;;;;;;4.60;3.50;;;3.90;99.90;5.00;95316.00;;;;5117519;27;20468;-81
2022/02/17 08:44:46;;;;;;;4.23;3.07;;;4.00;99.90;5.60;95316.00;;;;5102304;28;20453;-81
2022/02/17 08:47:37;;;;;;;4.40;3.63;;;4.20;99.90;5.80;95308.00;;;;5102996;28;20425;-81
2022/02/17 08:50:26;;;;;;;7.50;3.10;;;4.40;99.90;5.60;95296.00;;;;5111869;28;20421;-80
2022/02/17 08:53:19;;;;;;;5.37;3.70;;;4.60;99.90;5.80;95308.00;;;;5110790;28;20686;-81
2022/02/17 08:56:10;;;;;;;3.70;2.70;;;4.70;99.90;6.00;95297.00;;;;5098775;28;20675;-80
2022/02/17 08:58:59;;;;;;;3.73;3.33;;;4.90;99.90;6.10;95311.00;;;;5113165;28;20233;-80
2022/02/17 09:01:51;;;;;;;3.93;3.10;;;5.00;99.90;6.50;95306.00;;;;5104843;28;20576;-81
2022/02/17 09:04:40;;;;;;;7.47;3.50;;;5.20;99.90;6.40;95291.00;;;;5107378;28;20242;-80
2022/02/17 09:07:29;;;;;;;6.03;3.00;;;5.40;99.90;6.00;95282.00;;;;5106455;27;20191;-80
2022/02/17 09:10:20;;;;;;;4.10;2.60;;;5.50;99.90;6.80;95274.00;;;;5107640;27;20202;-79
2022/02/17 09:13:08;;;;;;;5.57;3.07;;;5.60;99.90;7.40;95264.00;;;;5118279;27;20194;-81
2022/02/17 09:15:58;;;;;;;4.27;3.63;;;5.80;99.90;7.40;95244.00;;;;5102203;28;20212;-80
2022/02/17 09:18:47;;;;;;;15.57;4.47;;;6.00;99.90;7.40;95268.00;;;;5134353;27;20190;-80
2022/02/17 09:21:37;;;;;;;5.13;2.63;;;6.20;99.90;6.90;95253.00;;;;5114459;27;20202;-81
2022/02/17 09:24:26;;;;;;;3.10;2.77;;;6.30;99.90;7.50;95253.00;;;;5109106;28;20245;-82
2022/02/17 09:27:19;;;;;;;4.10;2.90;;;6.40;99.90;8.00;95249.00;;;;5103323;27;20341;-82
2022/02/17 09:30:10;;;;;;;6.27;3.57;;;6.60;99.90;8.40;95257.00;;;;5103817;28;20421;-82
2022/02/17 09:32:59;;;;;;;8.17;3.00;;;6.80;99.90;8.70;95234.00;;;;5099148;28;20204;-82
2022/02/17 09:35:48;;;;;;;3.40;2.43;;;7.10;99.90;8.70;95256.00;;;;5095887;28;20219;-82
2022/02/17 09:38:37;;;;;;;3.70;3.07;;;7.40;99.90;9.30;95257.00;;;;5128169;27;20209;-81
2022/02/17 09:41:27;;;;;;;6.50;2.80;;;7.60;99.90;9.50;95241.00;;;;5096836;28;20207;-80
2022/02/17 09:44:21;;;;;;;9.23;3.67;;;7.80;99.90;10.10;95227.00;;;;5089917;28;20235;-80
2022/02/17 09:47:11;;;;;;;4.77;3.43;;;8.10;99.90;10.50;95224.00;;;;5089689;28;20207;-81
2022/02/17 09:50:00;;;;;;;7.30;2.67;;;8.30;99.90;10.90;95224.00;;;;5101909;28;20198;-80
2022/02/17 09:52:49;;;;;;;6.30;2.33;;;8.70;99.90;11.20;95212.00;;;;5110007;28;20690;-81
2022/02/17 09:55:39;;;;;;;3.73;2.33;;;9.00;99.90;11.50;95215.00;;;;5111763;28;20222;-79
2022/02/17 09:58:28;;;;;;;6.17;3.20;;;9.30;99.90;11.70;95212.00;;;;5114719;28;20209;-79
2022/02/17 10:01:20;;;;;;;6.50;2.37;;;9.50;99.90;11.80;95207.00;;;;5113653;28;20202;-80
2022/02/17 10:04:14;;;;;;;4.27;2.43;;;9.80;99.90;12.10;95194.00;;;;5110013;28;20227;-81
2022/02/17 10:07:06;;;;;;;4.37;2.10;;;10.00;99.90;12.20;95189.00;;;;5093476;28;20202;-81
2022/02/17 10:10:01;;;;;;;3.37;2.20;;;10.30;99.90;12.50;95204.00;;;;5104568;28;20199;-81
2022/02/17 10:12:55;;;;;;;5.10;2.43;;;10.50;99.90;12.80;95187.00;;;;5114891;27;20250;-81
2022/02/17 10:15:44;;;;;;;9.63;2.77;;;10.80;99.90;12.80;95213.00;;;;5114564;28;20226;-80
2022/02/17 10:18:41;;;;;;;7.47;3.60;;;11.00;99.90;13.20;95214.00;;;;5112434;28;20199;-81
2022/02/17 10:21:34;;;;;;;9.47;2.60;;;11.20;99.90;13.80;95192.00;;;;5097339;28;20199;-79
2022/02/17 10:24:35;;;;;;;5.10;2.67;;;11.50;99.90;14.00;95204.00;;;;5106786;28;20254;-79
2022/02/17 10:27:26;;;;;;;7.37;3.03;;;11.80;99.90;14.30;95169.00;;;;5108720;28;20202;-79
2022/02/17 10:30:17;;;;;;;4.90;2.13;;;12.10;99.90;14.60;95170.00;;;;5106701;28;20659;-80
2022/02/17 10:33:07;;;;;;;8.07;2.73;;;12.30;99.90;14.90;95155.00;;;;5109038;28;20203;-79
2022/02/17 10:36:00;;;;;;;5.17;2.00;;;12.60;99.90;14.90;95162.00;;;;5110473;28;20655;-80
2022/02/17 10:39:08;;;;;;;5.67;2.40;;;12.70;99.90;15.20;95147.00;;;;5111092;28;20214;-79
2022/02/17 10:41:59;;;;;;;7.47;2.20;;;13.00;99.90;15.40;95171.00;;;;5104161;28;20213;-80
2022/02/17 10:44:48;;;;;;;3.50;1.90;;;13.30;99.90;16.30;95146.00;;;;5128288;27;20230;-79
2022/02/17 10:47:39;;;;;;;3.63;1.60;;;13.60;99.90;17.00;95153.00;;;;5120996;27;20700;-80
2022/02/17 10:50:28;;;;;;;3.93;2.37;;;14.10;99.90;17.50;95140.00;;;;5123666;27;20198;-81
2022/02/17 10:53:21;;;;;;;12.77;3.40;;;14.70;99.90;17.30;95136.00;;;;5122548;27;20202;-82
2022/02/17 10:56:13;;;;;;;4.33;2.33;;;15.30;97.70;18.30;95124.00;;;;5112678;27;20197;-80
2022/02/17 11:00:00;;;;;;;2.80;1.30;;;15.80;95.80;18.20;95105.00;;;;5108662;28;20199;-81
2022/02/17 11:02:15;;;;;;;3.50;1.77;;;16.30;90.10;20.00;95084.00;;;;5102428;28;20207;-81
2022/02/17 11:05:07;;;;;;;1.83;1.10;;;16.90;90.70;19.30;95089.00;;;;5102374;28;20218;-81
2022/02/17 11:07:56;;;;;;;3.13;0.70;;;17.60;82.70;20.60;95055.00;;;;5124793;27;20201;-81
2022/02/17 11:10:47;;;;;;;0.30;0.20;;;18.20;59.10;21.20;95081.00;;;;5122743;27;20201;-79
2022/02/17 11:13:36;;;;;;;0.50;0.20;;;19.10;51.50;21.60;95080.00;;;;5118362;27;20206;-80
2022/02/17 11:16:29;;;;;;;0.40;0.20;;;19.80;48.30;22.70;95080.00;;;;5127375;27;20195;-81
2022/02/17 11:19:18;;;;;;;0.20;0.20;;;20.50;46.20;22.90;95079.00;;;;5123288;27;20201;-80
2022/02/17 11:22:06;;;;;;;1.90;0.30;;;21.10;46.00;22.50;95092.00;;;;5128550;27;20205;-81
2022/02/17 11:24:56;;;;;;;0.37;0.30;;;21.30;42.30;22.90;95085.00;;;;5128815;27;20233;-82
2022/02/17 11:28:06;;;;;;;0.70;0.50;;;21.50;42.80;22.90;95102.00;;;;5131452;27;20575;-80
2022/02/17 11:30:59;;;;;;;0.20;0.20;;;21.80;41.90;23.10;95091.00;;;;5123887;27;20206;-80
2022/02/17 11:33:57;;;;;;;0.40;0.13;;;22.00;41.80;24.50;95097.00;;;;5129603;27;20205;-82
2022/02/17 11:36:46;;;;;;;0.20;0.20;;;22.30;42.30;23.80;95093.00;;;;5115826;28;20216;-82
2022/02/17 11:39:57;;;;;;;0.33;0.27;;;22.50;40.10;23.50;95087.00;;;;5127883;28;20193;-82
2022/02/17 11:42:48;;;;;;;0.30;0.20;;;22.50;39.20;24.00;95114.00;;;;5127101;28;20197;-80
2022/02/17 11:45:46;;;;;;;0.40;0.23;;;22.70;40.20;23.30;95044.00;;;;5130040;27;20206;-81
2022/02/17 11:48:39;;;;;;;0.30;0.10;;;22.60;39.70;24.00;95087.00;;;;5135362;27;20201;-80
2022/02/17 11:51:28;;;;;;;0.27;0.13;;;22.70;38.40;23.20;95088.00;;;;5118326;27;20198;-80
2022/02/17 11:54:19;;;;;;;0.27;0.20;;;22.60;38.00;23.30;95076.00;;;;5122404;28;20717;-80
2022/02/17 11:57:33;;;;;;;0.60;0.53;;;22.50;38.10;23.40;95069.00;;;;5130710;27;20209;-81
2022/02/17 12:00:34;;;;;;;0.60;0.23;;;22.30;38.20;23.10;95080.00;;;;5124075;27;20588;-80
2022/02/17 12:03:59;;;;;;;0.23;0.13;;;22.40;38.30;23.10;95077.00;;;;5134399;27;20206;-80
2022/02/17 12:07:35;;;;;;;0.30;0.20;;;22.60;36.80;24.10;95071.00;;;;5134593;27;20760;-80
2022/02/17 12:10:29;;;;;;;0.73;0.10;;;22.70;37.90;24.00;95070.00;;;;5106379;27;20199;-80
2022/02/17 12:13:31;;;;;;;0.60;0.40;;;23.20;37.00;23.40;95099.00;;;;5114762;27;20208;-81
2022/02/17 12:16:34;;;;;;;0.40;0.20;;;23.20;36.80;23.20;95094.00;;;;5105665;27;20233;-80
2022/02/17 12:19:27;;;;;;;0.20;0.20;;;22.90;36.70;23.30;95079.00;;;;5102990;27;20686;-80
2022/02/17 12:22:16;;;;;;;0.70;0.37;;;22.80;37.60;23.30;95068.00;;;;5110509;28;20235;-81
2022/02/17 12:25:17;;;;;;;0.20;0.13;;;22.80;36.00;24.10;95068.00;;;;5114794;27;20718;-79
2022/02/17 12:28:08;;;;;;;1.83;0.20;;;23.00;36.10;23.60;95056.00;;;;5118354;28;20203;-81
2022/02/17 12:30:57;;;;;;;0.20;0.20;;;23.00;35.50;24.10;95080.00;;;;5107586;28;20663;-80
2022/02/17 12:33:46;;;;;;;0.20;0.20;;;23.10;35.90;23.70;95030.00;;;;5109768;28;20203;-81
2022/02/17 12:36:36;;;;;;;1.80;0.30;;;23.30;34.90;23.80;95047.00;;;;5119578;27;20232;-81
2022/02/17 12:39:31;;;;;;;0.20;0.10;;;23.30;35.20;24.70;95055.00;;;;5120461;27;20386;-81
2022/02/17 12:42:21;;;;;;;0.40;0.20;;;23.50;35.10;24.60;95068.00;;;;5117268;27;20195;-81
2022/02/17 12:45:10;;;;;;;0.20;0.10;;;23.70;34.90;23.90;95034.00;;;;5111613;28;20221;-78
2022/02/17 12:47:58;;;;;;;0.50;0.20;;;23.80;34.60;24.10;95054.00;;;;5113069;28;20208;-79
2022/02/17 12:50:47;;;;;;;0.53;0.40;;;23.50;34.80;24.00;95064.00;;;;5133187;27;20204;-81
2022/02/17 12:53:55;;;;;;;0.40;0.20;;;23.40;35.80;23.90;95078.00;;;;5127157;27;20206;-80